x

Isle Of Shoals, Nh (iosn3) Weather Station

8:00am - Thu 8th Dec 2016 All times are EST. -5 hours from GMT.

  • Wind
    14mph, 16mph gusts
  • 空気 Temp 39°f
  • Sea Pressure 1012.5mb
  • Isle Of Shoals, Nh
  • Isle Of Shoals, Nh

More Historic Weather Station data

Upgrade to MSW Pro to gain access to the past 30 days of data for over 8000 Wavebouys and Weather Stations around the globe.

Join Pro

Comparision Forecast

View Surf forecast
   
Thu 12/08 8:00am 14 16 mph 1012.5mb 39f
7:00am 14 15 mph 1012.6mb 39f
6:00am 14 15 mph 1012.9mb 38f
5:00am 16 17 mph 1013.1mb 39f
4:00am 15 16 mph 1013.1mb 39f
3:00am 15 16 mph 1013.6mb 37f
2:00am 15 16 mph 1013.8mb 38f
1:00am 16
mph
1014.1mb 37f
12:00am 11 13 mph 1013.7mb 37f
Wed 12/07 11:00pm 8 9 mph 1014.5mb 37f
10:00pm 11 13 mph 1015mb 36f
9:00pm 14 16 mph 1015.2mb 38f
8:00pm 11 13 mph 1015.2mb 40f
7:00pm 14 16 mph 1015.4mb 39f
6:00pm 13 14 mph 1015.3mb 39f
5:00pm 8 10 mph 1015.2mb 39f
4:00pm 6 7 mph 1014.5mb 38f
3:00pm 6 7 mph 1014mb 38f
2:00pm 6
mph
1013.9mb 38f
1:00pm 7 8 mph 1014mb 37f
12:00pm 10 11 mph 1014.5mb 36f
11:00am 11 13 mph 1015.3mb 36f
10:00am 13 15 mph 1015.5mb 35f
9:00am 13 14 mph 1015.7mb 34f
8:00am 14 16 mph 1015.1mb 34f
7:00am 11 14 mph 1014.1mb 40f
6:00am 15 17 mph 1013.8mb 40f
5:00am 16 17 mph 1013.5mb 40f
4:00am 16 18 mph 1013.2mb 40f
3:00am 15 20 mph 1013.8mb 40f
2:00am 15 17 mph 1014.8mb 40f
1:00am 14 16 mph 1014.2mb 40f
12:00am 15 16 mph 1014.9mb 40f
Tue 12/06 11:00pm 11 14 mph 1015.9mb 40f
10:00pm 10 11 mph 1016.7mb 40f
9:00pm 6 7 mph 1016.9mb 40f
7:00pm 10 13 mph 1016.7mb 40f
6:00pm 11 14 mph 1016.6mb 40f
5:00pm 9 11 mph 1016.9mb 39f
4:00pm 7 8 mph 1017.5mb 39f
3:00pm 9 10 mph 1017.3mb 39f
2:00pm 2 3 mph 1017.9mb 40f
1:00pm 8 9 mph 1017.9mb 39f
12:00pm 8 9 mph 1018.7mb 39f
11:00am 10 11 mph 1019.3mb 38f
10:00am 14 15 mph 1019.4mb 37f
9:00am 16 20 mph 1019.3mb 36f
8:00am 16 17 mph 1018.9mb 36f
7:00am 14 16 mph 1018.7mb 36f
6:00am 17 20 mph 1018.3mb 37f
5:00am 20 22 mph 1017.9mb 36f
4:00am 23 25 mph 1017.3mb 36f
3:00am 20 22 mph 1017mb 36f
2:00am 21 23 mph 1016.6mb 37f
1:00am 17 18 mph 1015.6mb 36f
12:00am 16 18 mph 1014.9mb 36f
Mon 12/05 11:00pm 14 16 mph 1014.6mb 36f
10:00pm 20 22 mph 1013.8mb 36f
9:00pm 18 20 mph 1013.4mb 36f
8:00pm 16 20 mph 1013mb 35f
7:00pm 17 18 mph 1013.2mb 35f
6:00pm 11 14 mph 1013mb 35f
5:00pm 13 15 mph 1012.9mb 36f
4:00pm 11 13 mph 1012.8mb 36f
3:00pm 14 16 mph 1012.9mb 38f
2:00pm 22 24 mph 1012.5mb 39f
1:00pm 20 22 mph 1013mb 39f
12:00pm 13 14 mph 1013.8mb 38f
11:00am 2 3 mph 1015.5mb 35f
10:00am 1 2 mph 1016.8mb 34f
9:00am 1 2 mph 1017.5mb 33f
8:00am 10 11 mph 1018.4mb 33f
7:00am 13 18 mph 1018.1mb 39f
6:00am 9 10 mph 1018.2mb 38f
5:00am 6 7 mph 1019.7mb 38f
4:00am 7 8 mph 1019.1mb 37f
3:00am 8 11 mph 1019.7mb 37f
2:00am 11 14 mph 1020mb 35f
1:00am 3 5 mph 1021mb 35f
12:00am 9 10 mph 1020.9mb 35f
Sun 12/04 11:00pm 14 15 mph 1021.1mb 35f
10:00pm 11 13 mph 1021.8mb 35f
9:00pm 16 20 mph 1022.3mb 35f
8:00pm 15 18 mph 1022.5mb 35f
7:00pm 20 22 mph 1021.7mb 36f
6:00pm 22 24 mph 1021.3mb 37f
5:00pm 23 24 mph 1021.2mb 38f
4:00pm 18 21 mph 1021mb 39f
3:00pm 17 20 mph 1020.5mb 40f